Home   Weather   Canada   Guelph   Past weeks
Flag for Canada

Past Weather in Guelph, Ontario, Canada — Yesterday and Last 2 Weeks

Currently: 54 °F. Partly sunny. (Weather station: Waterloo Well, Canada). See more current weather

Past Weather in Guelph — Graph

°F

Guelph Temperature Yesterday

Maximum temperature yesterday: 52 °F (at 3:40 pm)
Minimum temperature yesterday: 27 °F (at 1:00 am)
Average temperature yesterday: 44 °F

High & Low Weather Summary for the Past Weeks

 TemperatureHumidityPressure
High54 °F (Feb 28, 3:14 am)100% (Feb 15, 2:07 pm)30.41 "Hg (Feb 15, 2:07 pm)
Low9 °F (Feb 24, 7:00 am)35% (Feb 26, 2:00 pm)29.23 "Hg (Feb 28, 8:00 am)
Average29 °F73%29.88 "Hg
* Reported Feb 13 8:00 am — Feb 28 8:00 am, Guelph. Weather by CustomWeather, © 2024

Note: Actual official high and low records may vary slightly from our data, if they occured in-between our weather recording intervals... More about our weather records

Guelph Weather History for the Previous 24 Hours

Scroll right to see more
 ConditionsComfort  
Time TempWeatherWind HumidityBarometerVisibility
8:00 am
Wed, Feb 28
54 °FLow clouds.10 mph94%29.23 "Hg9 mi
7:28 am52 °FMostly cloudy.12 mph100%29.24 "Hg9 mi
7:25 am52 °FOvercast.10 mph100%29.23 "Hg9 mi
7:10 am52 °FOvercast.12 mph100%29.24 "Hg9 mi
6:00 am52 °FMostly cloudy.7 mph100%29.26 "Hg8 mi
5:30 am52 °FMostly cloudy.10 mph100%29.28 "Hg9 mi
5:11 am52 °FOvercast.9 mph100%29.30 "Hg9 mi
5:01 am52 °FMostly cloudy.8 mph100%29.30 "Hg9 mi
4:31 am54 °FRain. Fog.13 mph100%29.35 "Hg5 mi
4:12 am54 °FMostly cloudy.14 mph100%29.32 "Hg9 mi
4:00 am54 °FLight rain. Fog.17 mph94%29.31 "Hg6 mi
3:43 am54 °FThundershowers. Fog.18 mph100%29.34 "Hg2 mi
3:32 am54 °FThundershowers. Fog.20 mph100%29.34 "Hg2 mi
3:14 am54 °FThunderstorms. Fog.16 mph100%29.33 "Hg3 mi
2:27 am50 °FMostly cloudy.10 mph100%29.36 "Hg7 mi
2:09 am48 °FThundershowers. Fog.8 mph100%29.38 "Hg6 mi
1:33 am48 °FFog.8 mph100%29.40 "Hg6 mi
1:10 am46 °FFog.6 mph100%29.41 "Hg3 mi
12:30 am45 °FFog.6 mph100%29.44 "Hg2 mi
12:08 am45 °FFog.5 mph100%29.45 "Hg1 mi
11:41 pm
Tue, Feb 27
43 °FFog.7 mph100%29.46 "Hg1 mi
11:00 pm41 °FFog.5 mph100%29.48 "Hg1 mi
10:57 pm43 °FFog.5 mph100%29.49 "Hg1 mi
10:38 pm43 °FFog.6 mph100%29.49 "Hg2 mi
10:02 pm43 °FFog.7 mph100%29.51 "Hg5 mi
9:00 pm45 °FClear.8 mph100%29.51 "Hg9 mi
8:00 pm46 °FClear.9 mph93%29.52 "Hg9 mi
7:00 pm46 °FClear.9 mph93%29.53 "Hg9 mi
6:00 pm50 °FScattered clouds.12 mph88%29.54 "Hg9 mi
5:22 pm50 °FMostly cloudy.13 mph88%29.53 "Hg9 mi
5:00 pm52 °FMore clouds than sun.13 mph82%29.54 "Hg9 mi
4:15 pm52 °FMostly cloudy.14 mph88%29.53 "Hg9 mi
4:08 pm52 °FMore clouds than sun.13 mph88%29.54 "Hg9 mi
3:40 pm52 °FOvercast.17 mph88%29.54 "Hg9 mi
3:03 pm50 °FThunderstorms. Mostly cloudy.21 mph88%29.53 "Hg9 mi
2:25 pm50 °FOvercast.17 mph94%29.54 "Hg9 mi
2:02 pm48 °FThunderstorms. Overcast.14 mph94%29.56 "Hg9 mi
1:35 pm48 °FThunderstorms. Overcast.13 mph94%29.56 "Hg9 mi
1:10 pm48 °FThunderstorms. Mostly cloudy.12 mph94%29.57 "Hg9 mi
1:01 pm48 °FLight rain. Mostly cloudy.8 mph94%29.59 "Hg9 mi
12:35 pm48 °FThunderstorms. Fog.13 mph94%29.60 "Hg3 mi
12:15 pm48 °FThunderstorms. More clouds than sun.14 mph94%29.59 "Hg9 mi
12:06 pm50 °FThundershowers. Cloudy.13 mph82%29.59 "Hg9 mi
11:00 am48 °FCloudy.10 mph76%29.62 "Hg9 mi
10:00 am50 °FBroken clouds.12 mph62%29.63 "Hg9 mi
9:00 am46 °FScattered clouds.7 mph66%29.64 "Hg9 mi
Weather by CustomWeather, © 2024

See weather overview